Airfield :
LOGIN :

Register | Disclaimer

   EN    FR    IT 

 










Legend :    VFR   Marginal VFR   IFR   Intensive IFR   Very Intensive IFR
Visi :
Ceiling :
>= 8 km
>= 3000ft
5 to 8 km
1000 to 3000 ft
1500m to 5 km
500 to 1000 ft
800 to 1500m
200 to 500 ft
< 800m
< 200 ft
Symbols :   Thunderstorms  Fog  Heavy snow  Heavy precipitations  Wind > 20 kt
SIGMETs :     Misc.  Thunderstorms  Icing  Turbulence  Mountain Waves  Volcanic Ashes







- Airport Elevation : 308 ft
- IATA code : MHG


EDFM - Mannheim-City

CURRENT METAR :
  • 250820Z 26014KT 220V290 CAVOK 19/08 Q1013

EXPIRED METARs :
  • 250750Z 25011KT 210V280 CAVOK 18/10 Q1012
  • 250720Z 21007KT 180V250 CAVOK 18/10 Q1012
  • 250650Z 21008KT 170V240 CAVOK 17/10 Q1012
  • 250620Z 22007KT 190V260 CAVOK 16/10 Q1012
  • 250550Z 19005KT 140V230 CAVOK 15/11 Q1012

TAF TAF EDFM
Valid from the 25 at 09:00 until the 25 at 18:00 UTC


250800Z 2509/2518 25012KT 9999 SCT040
TEMPO 2510/2516 26015G25KT
PROB30
TEMPO 2514/2518 SHRA BKN030TCU
No reported NOTAMs for that airfield.



MET'MAP, your aeronautical weather chart ! - Copyright ORBIFLY December 2007 - Disclaimer

ORBIFLY MET'MAP TEAM :

Programming & Development : Alexandra Zaïnal
Concept & Development : Baudouin d'Aumeries
Co-Development & Prog : Marc-Olivier Méhu
Technical & hardware support : Manuel Goepfert

Contact : metmap@orbifly.com




SOURCES & CREDITS :

   NOAA